sensor_id;sensor_type;location;lat;lon;timestamp;P1;durP1;ratioP1;P2;durP2;ratioP2
68951;SDS011;56000;51.146;17.112;2023-02-15T00:00:35;50.50;;;21.50;;
68951;SDS011;56000;51.146;17.112;2023-02-15T00:03:28;40.30;;;19.30;;
68951;SDS011;56000;51.146;17.112;2023-02-15T00:06:01;45.40;;;21.20;;
68951;SDS011;56000;51.146;17.112;2023-02-15T00:08:34;43.70;;;19.40;;
68951;SDS011;56000;51.146;17.112;2023-02-15T00:11:09;50.10;;;22.40;;
68951;SDS011;56000;51.146;17.112;2023-02-15T00:13:44;50.20;;;22.90;;
68951;SDS011;56000;51.146;17.112;2023-02-15T00:16:17;48.00;;;21.10;;
68951;SDS011;56000;51.146;17.112;2023-02-15T00:18:51;47.40;;;22.10;;
68951;SDS011;56000;51.146;17.112;2023-02-15T00:21:24;47.20;;;22.20;;
68951;SDS011;56000;51.146;17.112;2023-02-15T00:23:58;52.60;;;23.60;;
68951;SDS011;56000;51.146;17.112;2023-02-15T00:26:32;52.20;;;24.60;;
68951;SDS011;56000;51.146;17.112;2023-02-15T00:29:06;57.40;;;24.40;;
68951;SDS011;56000;51.146;17.112;2023-02-15T00:31:41;41.30;;;20.20;;
68951;SDS011;56000;51.146;17.112;2023-02-15T00:34:16;49.80;;;22.20;;
68951;SDS011;56000;51.146;17.112;2023-02-15T00:36:50;50.60;;;23.30;;
68951;SDS011;56000;51.146;17.112;2023-02-15T00:39:23;46.90;;;19.50;;
68951;SDS011;56000;51.146;17.112;2023-02-15T00:41:57;51.70;;;24.20;;
68951;SDS011;56000;51.146;17.112;2023-02-15T00:44:30;56.00;;;24.10;;
68951;SDS011;56000;51.146;17.112;2023-02-15T00:47:03;43.00;;;21.00;;
68951;SDS011;56000;51.146;17.112;2023-02-15T00:49:36;55.10;;;21.50;;
68951;SDS011;56000;51.146;17.112;2023-02-15T00:52:10;43.30;;;20.00;;
68951;SDS011;56000;51.146;17.112;2023-02-15T00:54:43;43.70;;;21.50;;
68951;SDS011;56000;51.146;17.112;2023-02-15T00:57:16;40.80;;;19.20;;
68951;SDS011;56000;51.146;17.112;2023-02-15T00:59:49;48.00;;;22.40;;
68951;SDS011;56000;51.146;17.112;2023-02-15T01:02:22;49.60;;;21.60;;
68951;SDS011;56000;51.146;17.112;2023-02-15T01:04:56;47.90;;;21.20;;
68951;SDS011;56000;51.146;17.112;2023-02-15T01:07:29;55.90;;;24.20;;
68951;SDS011;56000;51.146;17.112;2023-02-15T01:10:02;47.80;;;21.20;;
68951;SDS011;56000;51.146;17.112;2023-02-15T01:12:37;50.20;;;22.00;;
68951;SDS011;56000;51.146;17.112;2023-02-15T01:15:10;46.30;;;20.40;;
68951;SDS011;56000;51.146;17.112;2023-02-15T01:17:43;51.80;;;22.00;;
68951;SDS011;56000;51.146;17.112;2023-02-15T01:20:25;43.70;;;20.60;;
68951;SDS011;56000;51.146;17.112;2023-02-15T01:22:59;45.00;;;19.40;;
68951;SDS011;56000;51.146;17.112;2023-02-15T01:25:34;35.70;;;17.30;;
68951;SDS011;56000;51.146;17.112;2023-02-15T01:28:07;51.50;;;22.80;;
68951;SDS011;56000;51.146;17.112;2023-02-15T01:30:41;42.70;;;20.50;;
68951;SDS011;56000;51.146;17.112;2023-02-15T01:33:14;50.50;;;22.40;;
68951;SDS011;56000;51.146;17.112;2023-02-15T01:35:48;42.70;;;20.70;;
68951;SDS011;56000;51.146;17.112;2023-02-15T01:38:26;39.10;;;18.80;;
68951;SDS011;56000;51.146;17.112;2023-02-15T01:41:00;48.70;;;21.80;;
68951;SDS011;56000;51.146;17.112;2023-02-15T01:43:54;40.00;;;18.70;;
68951;SDS011;56000;51.146;17.112;2023-02-15T01:46:31;44.60;;;21.50;;
68951;SDS011;56000;51.146;17.112;2023-02-15T01:49:11;46.00;;;21.00;;
68951;SDS011;56000;51.146;17.112;2023-02-15T01:51:47;38.60;;;18.50;;
68951;SDS011;56000;51.146;17.112;2023-02-15T01:54:28;48.30;;;22.00;;
68951;SDS011;56000;51.146;17.112;2023-02-15T01:57:08;44.60;;;21.30;;
68951;SDS011;56000;51.146;17.112;2023-02-15T01:59:45;46.30;;;20.00;;
68951;SDS011;56000;51.146;17.112;2023-02-15T02:02:21;45.60;;;21.50;;
68951;SDS011;56000;51.146;17.112;2023-02-15T02:04:56;43.90;;;19.20;;
68951;SDS011;56000;51.146;17.112;2023-02-15T02:07:35;46.70;;;19.10;;
68951;SDS011;56000;51.146;17.112;2023-02-15T02:10:14;48.20;;;20.40;;
68951;SDS011;56000;51.146;17.112;2023-02-15T02:12:49;44.70;;;22.50;;
68951;SDS011;56000;51.146;17.112;2023-02-15T02:15:27;40.00;;;17.20;;
68951;SDS011;56000;51.146;17.112;2023-02-15T02:18:15;48.30;;;22.80;;
68951;SDS011;56000;51.146;17.112;2023-02-15T02:21:29;41.80;;;20.30;;
68951;SDS011;56000;51.146;17.112;2023-02-15T02:24:34;43.80;;;21.00;;
68951;SDS011;56000;51.146;17.112;2023-02-15T02:27:30;50.10;;;21.60;;
68951;SDS011;56000;51.146;17.112;2023-02-15T02:30:30;53.10;;;21.60;;
68951;SDS011;56000;51.146;17.112;2023-02-15T02:33:32;44.70;;;21.50;;
68951;SDS011;56000;51.146;17.112;2023-02-15T02:36:21;48.90;;;21.00;;
68951;SDS011;56000;51.146;17.112;2023-02-15T02:39:09;42.60;;;21.40;;
68951;SDS011;56000;51.146;17.112;2023-02-15T02:41:58;56.80;;;22.10;;
68951;SDS011;56000;51.146;17.112;2023-02-15T02:44:41;39.90;;;18.70;;
68951;SDS011;56000;51.146;17.112;2023-02-15T02:49:59;37.90;;;17.10;;
68951;SDS011;56000;51.146;17.112;2023-02-15T02:52:40;44.20;;;18.80;;
68951;SDS011;56000;51.146;17.112;2023-02-15T02:55:19;46.90;;;21.20;;
68951;SDS011;56000;51.146;17.112;2023-02-15T02:58:00;43.00;;;20.50;;
68951;SDS011;56000;51.146;17.112;2023-02-15T03:00:38;47.30;;;17.80;;
68951;SDS011;56000;51.146;17.112;2023-02-15T03:03:16;41.00;;;17.30;;
68951;SDS011;56000;51.146;17.112;2023-02-15T03:05:57;42.30;;;19.60;;
68951;SDS011;56000;51.146;17.112;2023-02-15T03:08:36;40.40;;;18.10;;
68951;SDS011;56000;51.146;17.112;2023-02-15T03:11:11;48.30;;;20.50;;
68951;SDS011;56000;51.146;17.112;2023-02-15T03:13:45;40.70;;;18.30;;
68951;SDS011;56000;51.146;17.112;2023-02-15T03:16:21;42.50;;;20.50;;
68951;SDS011;56000;51.146;17.112;2023-02-15T03:19:00;36.10;;;18.50;;
68951;SDS011;56000;51.146;17.112;2023-02-15T03:21:38;40.20;;;18.20;;
68951;SDS011;56000;51.146;17.112;2023-02-15T03:24:21;43.20;;;20.40;;
68951;SDS011;56000;51.146;17.112;2023-02-15T03:26:58;46.10;;;19.70;;
68951;SDS011;56000;51.146;17.112;2023-02-15T03:29:33;35.40;;;18.80;;
68951;SDS011;56000;51.146;17.112;2023-02-15T03:32:09;42.20;;;19.70;;
68951;SDS011;56000;51.146;17.112;2023-02-15T03:34:45;36.90;;;19.00;;
68951;SDS011;56000;51.146;17.112;2023-02-15T03:37:22;37.70;;;19.20;;
68951;SDS011;56000;51.146;17.112;2023-02-15T03:40:02;38.60;;;19.20;;
68951;SDS011;56000;51.146;17.112;2023-02-15T03:42:58;41.10;;;18.70;;
68951;SDS011;56000;51.146;17.112;2023-02-15T03:45:34;33.10;;;17.10;;
68951;SDS011;56000;51.146;17.112;2023-02-15T03:48:26;40.50;;;19.10;;
68951;SDS011;56000;51.146;17.112;2023-02-15T03:51:04;33.60;;;17.30;;
68951;SDS011;56000;51.146;17.112;2023-02-15T03:53:57;37.20;;;17.00;;
68951;SDS011;56000;51.146;17.112;2023-02-15T03:56:31;36.00;;;15.20;;
68951;SDS011;56000;51.146;17.112;2023-02-15T03:59:07;36.30;;;16.70;;
68951;SDS011;56000;51.146;17.112;2023-02-15T04:04:38;32.40;;;14.10;;
68951;SDS011;56000;51.146;17.112;2023-02-15T04:07:14;28.60;;;12.70;;
68951;SDS011;56000;51.146;17.112;2023-02-15T04:09:47;24.90;;;12.70;;
68951;SDS011;56000;51.146;17.112;2023-02-15T04:12:38;33.10;;;17.40;;
68951;SDS011;56000;51.146;17.112;2023-02-15T04:15:13;28.90;;;15.80;;
68951;SDS011;56000;51.146;17.112;2023-02-15T04:18:05;33.40;;;14.80;;
68951;SDS011;56000;51.146;17.112;2023-02-15T04:20:38;30.00;;;14.30;;
68951;SDS011;56000;51.146;17.112;2023-02-15T04:23:31;29.80;;;16.00;;
68951;SDS011;56000;51.146;17.112;2023-02-15T04:26:22;29.90;;;14.20;;
68951;SDS011;56000;51.146;17.112;2023-02-15T04:28:55;24.00;;;11.90;;
68951;SDS011;56000;51.146;17.112;2023-02-15T04:31:28;36.10;;;15.90;;
68951;SDS011;56000;51.146;17.112;2023-02-15T04:34:01;29.90;;;15.50;;
68951;SDS011;56000;51.146;17.112;2023-02-15T04:36:34;31.70;;;15.70;;
68951;SDS011;56000;51.146;17.112;2023-02-15T04:39:07;33.80;;;15.80;;
68951;SDS011;56000;51.146;17.112;2023-02-15T04:41:43;31.40;;;15.40;;
68951;SDS011;56000;51.146;17.112;2023-02-15T04:44:17;33.00;;;17.40;;
68951;SDS011;56000;51.146;17.112;2023-02-15T04:46:50;31.20;;;16.10;;
68951;SDS011;56000;51.146;17.112;2023-02-15T04:49:24;34.20;;;16.80;;
68951;SDS011;56000;51.146;17.112;2023-02-15T04:51:57;36.80;;;17.20;;
68951;SDS011;56000;51.146;17.112;2023-02-15T04:54:30;31.30;;;17.10;;
68951;SDS011;56000;51.146;17.112;2023-02-15T04:57:04;43.50;;;19.50;;
68951;SDS011;56000;51.146;17.112;2023-02-15T04:59:37;37.30;;;17.30;;
68951;SDS011;56000;51.146;17.112;2023-02-15T05:02:10;38.60;;;17.60;;
68951;SDS011;56000;51.146;17.112;2023-02-15T05:04:43;44.80;;;19.40;;
68951;SDS011;56000;51.146;17.112;2023-02-15T05:07:16;40.40;;;20.40;;
68951;SDS011;56000;51.146;17.112;2023-02-15T05:09:50;39.20;;;18.60;;
68951;SDS011;56000;51.146;17.112;2023-02-15T05:12:23;42.30;;;19.50;;
68951;SDS011;56000;51.146;17.112;2023-02-15T05:14:56;48.80;;;20.70;;
68951;SDS011;56000;51.146;17.112;2023-02-15T05:17:30;40.10;;;19.60;;
68951;SDS011;56000;51.146;17.112;2023-02-15T05:20:04;46.70;;;19.80;;
68951;SDS011;56000;51.146;17.112;2023-02-15T05:22:38;41.70;;;19.80;;
68951;SDS011;56000;51.146;17.112;2023-02-15T05:25:11;41.80;;;20.60;;
68951;SDS011;56000;51.146;17.112;2023-02-15T05:31:03;35.20;;;18.60;;
68951;SDS011;56000;51.146;17.112;2023-02-15T05:33:39;46.00;;;19.30;;
68951;SDS011;56000;51.146;17.112;2023-02-15T05:36:12;37.60;;;18.40;;
68951;SDS011;56000;51.146;17.112;2023-02-15T05:38:45;41.60;;;18.60;;
68951;SDS011;56000;51.146;17.112;2023-02-15T05:41:18;35.60;;;18.50;;
68951;SDS011;56000;51.146;17.112;2023-02-15T05:43:54;40.20;;;18.80;;
68951;SDS011;56000;51.146;17.112;2023-02-15T05:46:27;47.20;;;20.50;;
68951;SDS011;56000;51.146;17.112;2023-02-15T05:49:01;43.90;;;21.00;;
68951;SDS011;56000;51.146;17.112;2023-02-15T05:51:35;45.40;;;20.70;;
68951;SDS011;56000;51.146;17.112;2023-02-15T05:54:08;41.30;;;21.20;;
68951;SDS011;56000;51.146;17.112;2023-02-15T05:56:41;42.40;;;21.20;;
68951;SDS011;56000;51.146;17.112;2023-02-15T05:59:14;39.60;;;20.00;;
68951;SDS011;56000;51.146;17.112;2023-02-15T06:01:47;50.50;;;22.10;;
68951;SDS011;56000;51.146;17.112;2023-02-15T06:04:20;38.60;;;20.30;;
68951;SDS011;56000;51.146;17.112;2023-02-15T06:06:53;45.60;;;20.20;;
68951;SDS011;56000;51.146;17.112;2023-02-15T06:09:26;46.50;;;21.20;;
68951;SDS011;56000;51.146;17.112;2023-02-15T06:11:59;45.20;;;22.20;;
68951;SDS011;56000;51.146;17.112;2023-02-15T06:14:33;46.50;;;21.70;;
68951;SDS011;56000;51.146;17.112;2023-02-15T06:17:06;44.40;;;21.10;;
68951;SDS011;56000;51.146;17.112;2023-02-15T06:19:39;46.70;;;21.80;;
68951;SDS011;56000;51.146;17.112;2023-02-15T06:22:12;46.90;;;24.90;;
68951;SDS011;56000;51.146;17.112;2023-02-15T06:24:45;57.40;;;25.30;;
68951;SDS011;56000;51.146;17.112;2023-02-15T06:27:18;50.30;;;22.60;;
68951;SDS011;56000;51.146;17.112;2023-02-15T06:29:51;43.50;;;19.70;;
68951;SDS011;56000;51.146;17.112;2023-02-15T06:32:25;48.50;;;23.70;;
68951;SDS011;56000;51.146;17.112;2023-02-15T06:34:58;44.80;;;22.00;;
68951;SDS011;56000;51.146;17.112;2023-02-15T06:37:32;42.20;;;20.80;;
68951;SDS011;56000;51.146;17.112;2023-02-15T06:40:06;51.50;;;24.40;;
68951;SDS011;56000;51.146;17.112;2023-02-15T06:42:40;45.70;;;23.40;;
68951;SDS011;56000;51.146;17.112;2023-02-15T06:45:14;41.80;;;20.10;;
68951;SDS011;56000;51.146;17.112;2023-02-15T06:47:47;40.50;;;19.70;;
68951;SDS011;56000;51.146;17.112;2023-02-15T06:50:20;46.00;;;22.90;;
68951;SDS011;56000;51.146;17.112;2023-02-15T06:52:57;51.90;;;24.80;;
68951;SDS011;56000;51.146;17.112;2023-02-15T06:55:31;47.70;;;23.30;;
68951;SDS011;56000;51.146;17.112;2023-02-15T06:58:04;42.80;;;21.80;;
68951;SDS011;56000;51.146;17.112;2023-02-15T07:00:37;44.60;;;23.70;;
68951;SDS011;56000;51.146;17.112;2023-02-15T07:03:12;61.80;;;33.40;;
68951;SDS011;56000;51.146;17.112;2023-02-15T07:05:46;50.80;;;25.00;;
68951;SDS011;56000;51.146;17.112;2023-02-15T07:08:19;42.20;;;20.50;;
68951;SDS011;56000;51.146;17.112;2023-02-15T07:10:52;43.60;;;22.20;;
68951;SDS011;56000;51.146;17.112;2023-02-15T07:13:47;39.70;;;20.80;;
68951;SDS011;56000;51.146;17.112;2023-02-15T07:16:23;37.20;;;18.70;;
68951;SDS011;56000;51.146;17.112;2023-02-15T07:18:57;44.80;;;22.40;;
68951;SDS011;56000;51.146;17.112;2023-02-15T07:21:30;45.30;;;21.50;;
68951;SDS011;56000;51.146;17.112;2023-02-15T07:24:03;44.60;;;22.00;;
68951;SDS011;56000;51.146;17.112;2023-02-15T07:26:36;38.60;;;20.60;;
68951;SDS011;56000;51.146;17.112;2023-02-15T07:29:09;44.70;;;23.50;;
68951;SDS011;56000;51.146;17.112;2023-02-15T07:31:42;45.50;;;22.40;;
68951;SDS011;56000;51.146;17.112;2023-02-15T07:34:15;51.70;;;24.60;;
68951;SDS011;56000;51.146;17.112;2023-02-15T07:36:49;47.80;;;24.10;;
68951;SDS011;56000;51.146;17.112;2023-02-15T07:39:23;51.40;;;25.60;;
68951;SDS011;56000;51.146;17.112;2023-02-15T07:41:56;46.60;;;25.20;;
68951;SDS011;56000;51.146;17.112;2023-02-15T07:44:33;57.50;;;26.60;;
68951;SDS011;56000;51.146;17.112;2023-02-15T07:47:06;49.20;;;25.40;;
68951;SDS011;56000;51.146;17.112;2023-02-15T07:49:39;46.70;;;24.80;;
68951;SDS011;56000;51.146;17.112;2023-02-15T07:52:12;47.80;;;24.10;;
68951;SDS011;56000;51.146;17.112;2023-02-15T07:54:45;43.70;;;20.60;;
68951;SDS011;56000;51.146;17.112;2023-02-15T07:57:18;46.90;;;22.70;;
68951;SDS011;56000;51.146;17.112;2023-02-15T07:59:51;35.10;;;19.10;;
68951;SDS011;56000;51.146;17.112;2023-02-15T08:02:25;40.80;;;19.50;;
68951;SDS011;56000;51.146;17.112;2023-02-15T08:04:58;44.60;;;22.10;;
68951;SDS011;56000;51.146;17.112;2023-02-15T08:07:32;40.40;;;21.90;;
68951;SDS011;56000;51.146;17.112;2023-02-15T08:10:06;35.30;;;19.80;;
68951;SDS011;56000;51.146;17.112;2023-02-15T08:12:59;40.60;;;20.10;;
68951;SDS011;56000;51.146;17.112;2023-02-15T08:15:32;39.30;;;21.90;;
68951;SDS011;56000;51.146;17.112;2023-02-15T08:18:06;42.50;;;22.70;;
68951;SDS011;56000;51.146;17.112;2023-02-15T08:20:39;39.90;;;22.20;;
68951;SDS011;56000;51.146;17.112;2023-02-15T08:23:12;38.90;;;20.50;;
68951;SDS011;56000;51.146;17.112;2023-02-15T08:25:45;37.20;;;19.60;;
68951;SDS011;56000;51.146;17.112;2023-02-15T08:28:18;35.20;;;20.80;;
68951;SDS011;56000;51.146;17.112;2023-02-15T08:30:51;36.30;;;21.60;;
68951;SDS011;56000;51.146;17.112;2023-02-15T08:33:24;35.10;;;19.50;;
68951;SDS011;56000;51.146;17.112;2023-02-15T08:35:58;35.40;;;18.60;;
68951;SDS011;56000;51.146;17.112;2023-02-15T08:38:35;31.30;;;18.20;;
68951;SDS011;56000;51.146;17.112;2023-02-15T08:41:14;33.30;;;18.30;;
68951;SDS011;56000;51.146;17.112;2023-02-15T08:43:50;34.20;;;20.40;;
68951;SDS011;56000;51.146;17.112;2023-02-15T08:46:26;33.30;;;18.30;;
68951;SDS011;56000;51.146;17.112;2023-02-15T08:49:00;35.40;;;20.20;;
68951;SDS011;56000;51.146;17.112;2023-02-15T08:51:35;34.40;;;18.70;;
68951;SDS011;56000;51.146;17.112;2023-02-15T08:54:10;32.00;;;19.30;;
68951;SDS011;56000;51.146;17.112;2023-02-15T08:56:46;28.80;;;16.80;;
68951;SDS011;56000;51.146;17.112;2023-02-15T08:59:21;28.90;;;18.00;;
68951;SDS011;56000;51.146;17.112;2023-02-15T09:01:57;30.00;;;18.00;;
68951;SDS011;56000;51.146;17.112;2023-02-15T09:04:31;27.30;;;18.10;;
68951;SDS011;56000;51.146;17.112;2023-02-15T09:07:05;33.90;;;20.20;;
68951;SDS011;56000;51.146;17.112;2023-02-15T09:09:38;29.00;;;19.00;;
68951;SDS011;56000;51.146;17.112;2023-02-15T09:15:25;27.90;;;17.50;;
68951;SDS011;56000;51.146;17.112;2023-02-15T09:17:59;27.70;;;18.20;;
68951;SDS011;56000;51.146;17.112;2023-02-15T09:28:02;22.60;;;16.80;;
68951;SDS011;56000;51.146;17.112;2023-02-15T09:41:00;25.80;;;17.50;;
68951;SDS011;56000;51.146;17.112;2023-02-15T09:43:48;23.90;;;17.40;;
68951;SDS011;56000;51.146;17.112;2023-02-15T09:46:37;22.70;;;16.10;;
68951;SDS011;56000;51.146;17.112;2023-02-15T09:49:26;24.50;;;17.90;;
68951;SDS011;56000;51.146;17.112;2023-02-15T09:52:17;26.80;;;18.20;;
68951;SDS011;56000;51.146;17.112;2023-02-15T10:06:10;24.40;;;16.90;;
68951;SDS011;56000;51.146;17.112;2023-02-15T10:12:17;25.80;;;18.00;;
68951;SDS011;56000;51.146;17.112;2023-02-15T10:18:36;26.10;;;18.30;;
68951;SDS011;56000;51.146;17.112;2023-02-15T10:21:23;24.20;;;17.10;;
68951;SDS011;56000;51.146;17.112;2023-02-15T10:24:42;23.60;;;17.80;;
68951;SDS011;56000;51.146;17.112;2023-02-15T10:27:24;24.70;;;18.50;;
68951;SDS011;56000;51.146;17.112;2023-02-15T10:30:06;24.70;;;16.80;;
68951;SDS011;56000;51.146;17.112;2023-02-15T10:32:46;24.70;;;17.70;;
68951;SDS011;56000;51.146;17.112;2023-02-15T10:35:35;24.20;;;18.50;;
68951;SDS011;56000;51.146;17.112;2023-02-15T10:38:25;25.30;;;17.60;;
68951;SDS011;56000;51.146;17.112;2023-02-15T10:41:09;23.40;;;17.60;;
68951;SDS011;56000;51.146;17.112;2023-02-15T10:44:02;25.00;;;18.10;;
68951;SDS011;56000;51.146;17.112;2023-02-15T10:47:10;22.40;;;17.30;;
68951;SDS011;56000;51.146;17.112;2023-02-15T10:50:16;23.50;;;17.60;;
68951;SDS011;56000;51.146;17.112;2023-02-15T10:53:13;24.60;;;19.00;;
68951;SDS011;56000;51.146;17.112;2023-02-15T10:56:07;22.50;;;16.80;;
68951;SDS011;56000;51.146;17.112;2023-02-15T10:58:59;24.90;;;17.60;;
68951;SDS011;56000;51.146;17.112;2023-02-15T11:01:51;25.50;;;18.20;;
68951;SDS011;56000;51.146;17.112;2023-02-15T11:04:49;22.20;;;17.80;;
68951;SDS011;56000;51.146;17.112;2023-02-15T11:07:40;23.40;;;17.50;;
68951;SDS011;56000;51.146;17.112;2023-02-15T11:10:24;24.20;;;18.60;;
68951;SDS011;56000;51.146;17.112;2023-02-15T11:13:05;21.60;;;17.20;;
68951;SDS011;56000;51.146;17.112;2023-02-15T11:15:43;23.00;;;19.20;;
68951;SDS011;56000;51.146;17.112;2023-02-15T11:18:21;26.40;;;17.30;;
68951;SDS011;56000;51.146;17.112;2023-02-15T11:21:03;21.70;;;16.90;;
68951;SDS011;56000;51.146;17.112;2023-02-15T11:23:43;26.00;;;18.90;;
68951;SDS011;56000;51.146;17.112;2023-02-15T11:26:19;23.30;;;17.60;;
68951;SDS011;56000;51.146;17.112;2023-02-15T11:28:59;23.90;;;19.70;;
68951;SDS011;56000;51.146;17.112;2023-02-15T11:31:43;33.90;;;29.00;;
68951;SDS011;56000;51.146;17.112;2023-02-15T11:34:20;25.00;;;19.00;;
68951;SDS011;56000;51.146;17.112;2023-02-15T11:37:00;26.40;;;19.30;;
68951;SDS011;56000;51.146;17.112;2023-02-15T11:39:37;23.10;;;17.80;;
68951;SDS011;56000;51.146;17.112;2023-02-15T11:42:13;24.20;;;17.60;;
68951;SDS011;56000;51.146;17.112;2023-02-15T11:44:54;22.00;;;17.30;;
68951;SDS011;56000;51.146;17.112;2023-02-15T11:47:31;20.10;;;15.70;;
68951;SDS011;56000;51.146;17.112;2023-02-15T11:50:09;19.00;;;16.10;;
68951;SDS011;56000;51.146;17.112;2023-02-15T11:52:43;19.20;;;16.50;;
68951;SDS011;56000;51.146;17.112;2023-02-15T11:55:21;18.90;;;16.90;;
68951;SDS011;56000;51.146;17.112;2023-02-15T11:57:57;23.10;;;17.30;;
68951;SDS011;56000;51.146;17.112;2023-02-15T12:00:37;18.50;;;16.50;;
68951;SDS011;56000;51.146;17.112;2023-02-15T12:03:17;20.80;;;16.60;;
68951;SDS011;56000;51.146;17.112;2023-02-15T12:05:56;20.90;;;16.20;;
68951;SDS011;56000;51.146;17.112;2023-02-15T12:08:37;18.70;;;15.70;;
68951;SDS011;56000;51.146;17.112;2023-02-15T12:11:14;20.30;;;17.10;;
68951;SDS011;56000;51.146;17.112;2023-02-15T12:13:58;20.40;;;15.90;;
68951;SDS011;56000;51.146;17.112;2023-02-15T12:16:34;20.80;;;16.70;;
68951;SDS011;56000;51.146;17.112;2023-02-15T12:19:28;20.10;;;16.20;;
68951;SDS011;56000;51.146;17.112;2023-02-15T12:22:17;21.00;;;16.20;;
68951;SDS011;56000;51.146;17.112;2023-02-15T12:24:55;19.50;;;17.30;;
68951;SDS011;56000;51.146;17.112;2023-02-15T12:27:30;23.70;;;17.60;;
68951;SDS011;56000;51.146;17.112;2023-02-15T12:30:06;23.10;;;18.50;;
68951;SDS011;56000;51.146;17.112;2023-02-15T12:32:52;20.20;;;17.60;;
68951;SDS011;56000;51.146;17.112;2023-02-15T12:35:30;21.80;;;19.40;;
68951;SDS011;56000;51.146;17.112;2023-02-15T12:38:20;24.40;;;19.70;;
68951;SDS011;56000;51.146;17.112;2023-02-15T12:41:03;22.60;;;17.40;;
68951;SDS011;56000;51.146;17.112;2023-02-15T12:44:03;20.10;;;16.90;;
68951;SDS011;56000;51.146;17.112;2023-02-15T12:46:43;20.10;;;17.20;;
68951;SDS011;56000;51.146;17.112;2023-02-15T12:49:29;19.50;;;17.10;;
68951;SDS011;56000;51.146;17.112;2023-02-15T12:52:05;22.10;;;17.60;;
68951;SDS011;56000;51.146;17.112;2023-02-15T12:54:54;24.50;;;19.70;;
68951;SDS011;56000;51.146;17.112;2023-02-15T12:57:40;26.00;;;20.20;;
68951;SDS011;56000;51.146;17.112;2023-02-15T13:00:30;27.50;;;20.50;;
68951;SDS011;56000;51.146;17.112;2023-02-15T13:03:08;25.90;;;19.80;;
68951;SDS011;56000;51.146;17.112;2023-02-15T13:05:53;26.20;;;18.90;;
68951;SDS011;56000;51.146;17.112;2023-02-15T13:08:30;33.30;;;22.70;;
68951;SDS011;56000;51.146;17.112;2023-02-15T13:11:06;27.40;;;18.80;;
68951;SDS011;56000;51.146;17.112;2023-02-15T13:13:50;28.40;;;20.40;;
68951;SDS011;56000;51.146;17.112;2023-02-15T13:16:28;28.80;;;19.40;;
68951;SDS011;56000;51.146;17.112;2023-02-15T13:21:43;30.60;;;17.90;;
68951;SDS011;56000;51.146;17.112;2023-02-15T13:24:22;31.40;;;19.10;;
68951;SDS011;56000;51.146;17.112;2023-02-15T13:26:57;35.40;;;19.20;;
68951;SDS011;56000;51.146;17.112;2023-02-15T13:29:46;30.50;;;18.00;;
68951;SDS011;56000;51.146;17.112;2023-02-15T13:32:27;33.80;;;17.90;;
68951;SDS011;56000;51.146;17.112;2023-02-15T13:35:03;32.40;;;19.00;;
68951;SDS011;56000;51.146;17.112;2023-02-15T13:37:51;33.20;;;19.40;;
68951;SDS011;56000;51.146;17.112;2023-02-15T13:40:40;33.70;;;20.40;;
68951;SDS011;56000;51.146;17.112;2023-02-15T13:43:38;31.60;;;18.40;;
68951;SDS011;56000;51.146;17.112;2023-02-15T13:46:26;33.80;;;19.70;;
68951;SDS011;56000;51.146;17.112;2023-02-15T13:49:17;30.20;;;17.80;;
68951;SDS011;56000;51.146;17.112;2023-02-15T13:52:04;31.20;;;17.50;;
68951;SDS011;56000;51.146;17.112;2023-02-15T13:55:06;31.80;;;18.00;;
68951;SDS011;56000;51.146;17.112;2023-02-15T13:58:06;28.90;;;15.90;;
68951;SDS011;56000;51.146;17.112;2023-02-15T14:00:50;28.00;;;16.90;;
68951;SDS011;56000;51.146;17.112;2023-02-15T14:07:01;29.70;;;15.60;;
68951;SDS011;56000;51.146;17.112;2023-02-15T14:09:51;29.20;;;17.60;;
68951;SDS011;56000;51.146;17.112;2023-02-15T14:12:39;31.70;;;16.50;;
68951;SDS011;56000;51.146;17.112;2023-02-15T14:15:35;28.00;;;16.70;;
68951;SDS011;56000;51.146;17.112;2023-02-15T14:18:22;26.60;;;16.60;;
68951;SDS011;56000;51.146;17.112;2023-02-15T14:21:06;27.60;;;16.10;;
68951;SDS011;56000;51.146;17.112;2023-02-15T14:23:48;27.40;;;14.70;;
68951;SDS011;56000;51.146;17.112;2023-02-15T14:26:33;26.80;;;15.40;;
68951;SDS011;56000;51.146;17.112;2023-02-15T14:29:20;28.60;;;16.20;;
68951;SDS011;56000;51.146;17.112;2023-02-15T14:32:03;31.10;;;16.20;;
68951;SDS011;56000;51.146;17.112;2023-02-15T14:34:45;29.80;;;16.50;;
68951;SDS011;56000;51.146;17.112;2023-02-15T14:37:29;26.80;;;16.00;;
68951;SDS011;56000;51.146;17.112;2023-02-15T14:40:15;29.90;;;16.20;;
68951;SDS011;56000;51.146;17.112;2023-02-15T14:43:14;28.90;;;15.80;;
68951;SDS011;56000;51.146;17.112;2023-02-15T14:45:54;26.90;;;15.10;;
68951;SDS011;56000;51.146;17.112;2023-02-15T14:48:35;30.20;;;16.40;;
68951;SDS011;56000;51.146;17.112;2023-02-15T14:54:59;28.60;;;16.50;;
68951;SDS011;56000;51.146;17.112;2023-02-15T14:57:35;27.60;;;16.40;;
68951;SDS011;56000;51.146;17.112;2023-02-15T15:00:30;29.00;;;14.20;;
68951;SDS011;56000;51.146;17.112;2023-02-15T15:03:22;30.30;;;16.60;;
68951;SDS011;56000;51.146;17.112;2023-02-15T15:05:57;32.30;;;17.00;;
68951;SDS011;56000;51.146;17.112;2023-02-15T15:08:37;29.00;;;16.40;;
68951;SDS011;56000;51.146;17.112;2023-02-15T15:11:42;33.80;;;16.10;;
68951;SDS011;56000;51.146;17.112;2023-02-15T15:14:40;33.60;;;16.70;;
68951;SDS011;56000;51.146;17.112;2023-02-15T15:20:43;35.60;;;16.60;;
68951;SDS011;56000;51.146;17.112;2023-02-15T15:23:42;33.20;;;16.40;;
68951;SDS011;56000;51.146;17.112;2023-02-15T15:26:31;31.90;;;15.90;;
68951;SDS011;56000;51.146;17.112;2023-02-15T15:29:07;29.90;;;15.40;;
68951;SDS011;56000;51.146;17.112;2023-02-15T15:31:43;29.60;;;16.20;;
68951;SDS011;56000;51.146;17.112;2023-02-15T15:34:32;31.80;;;16.00;;
68951;SDS011;56000;51.146;17.112;2023-02-15T15:37:36;30.70;;;16.30;;
68951;SDS011;56000;51.146;17.112;2023-02-15T15:40:42;28.80;;;15.40;;
68951;SDS011;56000;51.146;17.112;2023-02-15T15:44:01;35.10;;;21.00;;
68951;SDS011;56000;51.146;17.112;2023-02-15T15:49:49;30.40;;;16.30;;
68951;SDS011;56000;51.146;17.112;2023-02-15T15:52:28;27.10;;;15.00;;
68951;SDS011;56000;51.146;17.112;2023-02-15T15:55:15;28.90;;;16.00;;
68951;SDS011;56000;51.146;17.112;2023-02-15T15:57:51;33.60;;;17.20;;
68951;SDS011;56000;51.146;17.112;2023-02-15T16:00:32;37.60;;;17.70;;
68951;SDS011;56000;51.146;17.112;2023-02-15T16:03:15;37.80;;;15.60;;
68951;SDS011;56000;51.146;17.112;2023-02-15T16:05:53;33.40;;;17.20;;
68951;SDS011;56000;51.146;17.112;2023-02-15T16:08:33;33.10;;;16.90;;
68951;SDS011;56000;51.146;17.112;2023-02-15T16:11:13;33.30;;;18.00;;
68951;SDS011;56000;51.146;17.112;2023-02-15T16:13:52;43.50;;;23.10;;
68951;SDS011;56000;51.146;17.112;2023-02-15T16:16:26;61.50;;;27.80;;
68951;SDS011;56000;51.146;17.112;2023-02-15T16:19:00;45.20;;;22.90;;
68951;SDS011;56000;51.146;17.112;2023-02-15T16:21:36;47.20;;;24.70;;
68951;SDS011;56000;51.146;17.112;2023-02-15T16:24:18;46.30;;;24.20;;